createdAt,value
2019-03-30T00:01:06.356Z,11.23
2019-03-30T00:03:38.109Z,11.10
2019-03-30T00:06:10.127Z,11.60
2019-03-30T00:08:41.574Z,11.60
2019-03-30T00:11:13.385Z,11.70
2019-03-30T00:13:45.297Z,11.03
2019-03-30T00:16:16.784Z,12.20
2019-03-30T00:18:49.410Z,11.23
2019-03-30T00:21:20.885Z,11.80
2019-03-30T00:23:52.812Z,11.50
2019-03-30T00:26:25.816Z,13.27
2019-03-30T00:28:57.314Z,12.10
2019-03-30T00:31:28.838Z,11.77
2019-03-30T00:34:00.337Z,11.70
2019-03-30T00:36:31.800Z,11.97
2019-03-30T00:39:04.146Z,12.10
2019-03-30T00:41:35.807Z,12.40
2019-03-30T00:44:07.652Z,11.93
2019-03-30T00:46:39.127Z,11.80
2019-03-30T00:49:11.369Z,11.47
2019-03-30T00:51:42.838Z,11.93
2019-03-30T00:54:15.407Z,11.90
2019-03-30T00:56:47.209Z,10.90
2019-03-30T00:59:18.774Z,11.27
2019-03-30T01:01:50.262Z,11.17
2019-03-30T01:04:22.042Z,9.93
2019-03-30T01:06:53.645Z,11.67
2019-03-30T01:09:25.112Z,10.83
2019-03-30T01:11:56.586Z,10.43
2019-03-30T01:14:28.530Z,10.47
2019-03-30T01:17:01.748Z,11.33
2019-03-30T01:19:34.340Z,10.50
2019-03-30T01:22:06.134Z,12.33
2019-03-30T01:24:37.679Z,11.97
2019-03-30T01:27:09.218Z,10.97
2019-03-30T01:29:41.026Z,10.57
2019-03-30T01:32:13.062Z,10.87
2019-03-30T01:34:44.830Z,10.97
2019-03-30T01:37:16.308Z,10.87
2019-03-30T01:39:47.795Z,11.07
2019-03-30T01:42:19.714Z,10.67
2019-03-30T01:44:51.208Z,10.60
2019-03-30T01:47:22.733Z,11.37
2019-03-30T01:49:54.288Z,11.33
2019-03-30T01:52:25.756Z,11.17
2019-03-30T01:54:57.256Z,11.47
2019-03-30T01:57:28.704Z,11.00
2019-03-30T02:00:00.460Z,10.87
2019-03-30T02:02:32.731Z,11.17
2019-03-30T02:05:04.326Z,11.47
2019-03-30T02:07:35.817Z,10.87
2019-03-30T02:10:08.296Z,11.27
2019-03-30T02:12:39.763Z,10.73
2019-03-30T02:15:11.768Z,11.67
2019-03-30T02:17:43.667Z,12.13
2019-03-30T02:20:30.863Z,11.00
2019-03-30T02:23:00.395Z,11.77
2019-03-30T02:25:31.956Z,11.50
2019-03-30T02:28:06.761Z,11.40
2019-03-30T02:30:37.373Z,11.07
2019-03-30T02:33:09.252Z,10.77
2019-03-30T02:35:40.698Z,11.00
2019-03-30T02:38:12.160Z,11.30
2019-03-30T02:40:43.638Z,11.63
2019-03-30T02:43:15.086Z,10.83
2019-03-30T02:45:46.881Z,11.07
2019-03-30T02:48:18.377Z,11.83
2019-03-30T02:50:50.840Z,10.87
2019-03-30T02:53:22.446Z,11.50
2019-03-30T02:55:53.915Z,12.00
2019-03-30T02:58:27.389Z,11.33
2019-03-30T03:00:58.852Z,10.63
2019-03-30T03:03:30.646Z,11.23
2019-03-30T03:06:02.242Z,10.60
2019-03-30T03:08:33.882Z,11.17
2019-03-30T03:11:05.718Z,11.50
2019-03-30T03:13:37.485Z,11.00
2019-03-30T03:16:09.541Z,11.17
2019-03-30T03:18:40.999Z,11.70
2019-03-30T03:21:12.566Z,11.47
2019-03-30T03:23:44.103Z,12.30
2019-03-30T03:26:15.579Z,11.70
2019-03-30T03:28:47.208Z,11.83
2019-03-30T03:31:20.006Z,11.70
2019-03-30T03:33:51.527Z,10.73
2019-03-30T03:36:23.516Z,11.30
2019-03-30T03:38:55.495Z,11.07
2019-03-30T03:41:26.972Z,11.20
2019-03-30T03:43:58.970Z,11.17
2019-03-30T03:46:30.806Z,10.40
2019-03-30T03:49:02.420Z,10.83
2019-03-30T03:51:34.287Z,11.43
2019-03-30T03:54:05.879Z,9.83
2019-03-30T03:56:39.827Z,10.80
2019-03-30T03:59:12.148Z,10.43
2019-03-30T04:01:45.773Z,10.20
2019-03-30T04:04:20.514Z,11.13
2019-03-30T04:06:54.916Z,10.70
2019-03-30T04:09:28.857Z,10.40
2019-03-30T04:12:00.937Z,11.27
2019-03-30T04:14:35.169Z,11.00
2019-03-30T04:17:08.855Z,11.40
2019-03-30T04:19:40.587Z,10.13
2019-03-30T04:22:12.428Z,10.27
2019-03-30T04:24:43.959Z,10.53
2019-03-30T04:27:16.143Z,9.90
2019-03-30T04:29:47.896Z,10.83
2019-03-30T04:32:19.749Z,10.33
2019-03-30T04:34:51.310Z,10.70
2019-03-30T04:37:22.875Z,10.47
2019-03-30T04:39:54.339Z,11.10
2019-03-30T04:42:25.817Z,9.93
2019-03-30T04:44:57.295Z,10.20
2019-03-30T04:47:29.232Z,10.97
2019-03-30T04:50:01.235Z,10.43
2019-03-30T04:52:34.087Z,10.53
2019-03-30T04:55:06.161Z,11.20
2019-03-30T04:57:38.013Z,10.07
2019-03-30T05:00:10.431Z,10.40
2019-03-30T05:02:41.930Z,10.27
2019-03-30T05:05:13.392Z,10.07
2019-03-30T05:07:45.257Z,10.07
2019-03-30T05:10:17.199Z,10.67
2019-03-30T05:12:48.689Z,9.93
2019-03-30T05:15:20.166Z,10.27
2019-03-30T05:17:52.291Z,9.50
2019-03-30T05:20:23.826Z,10.13
2019-03-30T05:22:55.783Z,11.10
2019-03-30T05:25:27.237Z,11.13
2019-03-30T05:27:58.706Z,10.27
2019-03-30T05:30:30.225Z,9.80
2019-03-30T05:33:05.871Z,9.97
2019-03-30T05:35:35.025Z,10.13
2019-03-30T05:38:06.534Z,10.03
2019-03-30T05:40:38.319Z,10.53
2019-03-30T05:43:09.797Z,10.73
2019-03-30T05:45:42.281Z,10.10
2019-03-30T05:48:13.755Z,10.77
2019-03-30T05:50:45.211Z,10.70
2019-03-30T05:53:16.978Z,11.73
2019-03-30T05:55:48.548Z,11.27
2019-03-30T05:58:20.083Z,10.83
2019-03-30T06:00:51.562Z,10.70
2019-03-30T06:03:23.410Z,11.27
2019-03-30T06:05:55.240Z,10.97
2019-03-30T06:08:26.798Z,10.73
2019-03-30T06:10:58.363Z,11.20
2019-03-30T06:13:29.825Z,11.33
2019-03-30T06:16:01.302Z,11.00
2019-03-30T06:18:32.787Z,11.63
2019-03-30T06:21:04.278Z,10.63
2019-03-30T06:23:35.826Z,10.83
2019-03-30T06:26:07.301Z,11.00
2019-03-30T06:28:39.132Z,11.00
2019-03-30T06:31:10.612Z,10.73
2019-03-30T06:33:42.435Z,10.20
2019-03-30T06:36:13.995Z,11.50
2019-03-30T06:38:45.564Z,10.47
2019-03-30T06:41:18.406Z,10.47
2019-03-30T06:43:49.896Z,9.63
2019-03-30T06:46:22.021Z,9.70
2019-03-30T06:48:53.607Z,10.00
2019-03-30T06:51:25.588Z,9.83
2019-03-30T06:53:57.084Z,10.30
2019-03-30T06:56:28.548Z,10.23
2019-03-30T06:59:00.419Z,13.07
2019-03-30T07:01:32.473Z,13.40
2019-03-30T07:04:05.681Z,13.33
2019-03-30T07:06:38.923Z,12.07
2019-03-30T07:09:10.786Z,10.80
2019-03-30T07:11:44.705Z,9.20
2019-03-30T07:14:16.293Z,9.60
2019-03-30T07:16:49.557Z,9.50
2019-03-30T07:19:23.443Z,9.33
2019-03-30T07:21:55.226Z,9.87
2019-03-30T07:24:27.131Z,9.37
2019-03-30T07:26:58.669Z,9.37
2019-03-30T07:29:30.134Z,9.83
2019-03-30T07:32:02.001Z,10.13
2019-03-30T07:34:33.843Z,9.23
2019-03-30T07:37:06.195Z,10.03
2019-03-30T07:39:37.760Z,10.10
2019-03-30T07:42:09.255Z,9.07
2019-03-30T07:44:40.768Z,8.40
2019-03-30T07:47:12.249Z,9.93
2019-03-30T07:49:43.941Z,9.20
2019-03-30T07:52:15.527Z,9.00
2019-03-30T07:54:47.358Z,9.30
2019-03-30T07:57:19.203Z,9.60
2019-03-30T07:59:50.775Z,9.07
2019-03-30T08:02:22.295Z,9.60
2019-03-30T08:04:53.972Z,9.53
2019-03-30T08:07:25.840Z,9.33
2019-03-30T08:10:00.495Z,10.20
2019-03-30T08:12:32.218Z,9.37
2019-03-30T08:15:03.845Z,9.77
2019-03-30T08:17:35.731Z,10.27
2019-03-30T08:20:08.609Z,10.40
2019-03-30T08:22:40.382Z,10.40
2019-03-30T08:25:12.658Z,11.07
2019-03-30T08:27:44.304Z,10.80
2019-03-30T08:30:16.548Z,10.53
2019-03-30T08:32:48.045Z,9.83
2019-03-30T08:35:19.962Z,9.50
2019-03-30T08:37:51.424Z,10.17
2019-03-30T08:40:22.932Z,10.93
2019-03-30T08:42:54.466Z,10.63
2019-03-30T08:45:25.952Z,10.20
2019-03-30T08:47:57.443Z,9.33
2019-03-30T08:50:28.975Z,10.40
2019-03-30T08:53:00.752Z,11.00
2019-03-30T08:55:32.478Z,10.73
2019-03-30T08:58:04.347Z,10.73
2019-03-30T09:00:40.775Z,11.30
2019-03-30T09:03:12.247Z,10.70
2019-03-30T09:05:44.141Z,10.30
2019-03-30T09:08:16.297Z,10.73
2019-03-30T09:10:49.563Z,11.93
2019-03-30T09:13:21.025Z,10.63
2019-03-30T09:15:52.536Z,11.27
2019-03-30T09:18:24.143Z,11.40
2019-03-30T09:20:55.751Z,10.67
2019-03-30T09:23:27.322Z,10.87
2019-03-30T09:25:58.831Z,10.60
2019-03-30T09:28:30.397Z,10.23
2019-03-30T09:31:01.897Z,10.50
2019-03-30T09:33:33.367Z,10.10
2019-03-30T09:36:05.532Z,10.67
2019-03-30T09:38:37.007Z,11.03
2019-03-30T09:41:08.530Z,11.22
2019-03-30T09:43:40.073Z,10.33
2019-03-30T09:46:11.631Z,10.90
2019-03-30T09:48:43.206Z,11.43
2019-03-30T09:51:14.712Z,10.75
2019-03-30T09:53:46.298Z,10.82
2019-03-30T09:56:17.818Z,11.77
2019-03-30T09:58:49.387Z,11.05
2019-03-30T10:01:20.885Z,10.30
2019-03-30T10:03:52.892Z,11.20
2019-03-30T10:06:33.772Z,11.25
2019-03-30T10:08:58.450Z,10.53
2019-03-30T10:11:30.097Z,10.40
2019-03-30T10:14:01.624Z,10.98
2019-03-30T10:16:33.204Z,11.05
2019-03-30T10:19:04.702Z,11.05
2019-03-30T10:21:36.214Z,9.58
2019-03-30T10:24:07.907Z,11.45
2019-03-30T10:26:39.458Z,11.12
2019-03-30T10:29:22.550Z,10.68
2019-03-30T10:31:54.207Z,10.60
2019-03-30T10:34:25.763Z,10.35
2019-03-30T10:36:57.274Z,10.72
2019-03-30T10:39:29.277Z,10.98
2019-03-30T10:42:01.051Z,10.78
2019-03-30T10:44:32.755Z,10.85
2019-03-30T10:47:06.557Z,11.00
2019-03-30T10:49:38.443Z,11.12
2019-03-30T10:52:10.130Z,10.98
2019-03-30T10:54:52.117Z,10.53
2019-03-30T10:57:14.968Z,11.10
2019-03-30T10:59:47.394Z,10.48
2019-03-30T11:02:18.947Z,9.60
2019-03-30T11:04:51.587Z,8.33
2019-03-30T11:07:24.064Z,8.60
2019-03-30T11:09:55.711Z,9.45
2019-03-30T11:12:27.377Z,9.23
2019-03-30T11:14:59.052Z,9.55
2019-03-30T11:17:31.248Z,9.58
2019-03-30T11:20:02.837Z,8.53
2019-03-30T11:22:34.500Z,9.88
2019-03-30T11:25:08.671Z,9.83
2019-03-30T11:27:39.887Z,9.80
2019-03-30T11:30:12.073Z,9.53
2019-03-30T11:32:43.705Z,9.95
2019-03-30T11:35:15.333Z,9.30
2019-03-30T11:37:46.916Z,9.73
2019-03-30T11:40:18.392Z,10.18
2019-03-30T11:42:50.690Z,10.18
2019-03-30T11:45:22.331Z,10.25
2019-03-30T11:47:54.274Z,10.00
2019-03-30T11:50:25.909Z,10.10
2019-03-30T11:52:57.467Z,9.85
2019-03-30T11:55:29.331Z,9.30
2019-03-30T11:58:00.975Z,9.03
2019-03-30T12:00:32.446Z,8.73
2019-03-30T12:03:04.403Z,9.30
2019-03-30T12:05:36.063Z,10.03
2019-03-30T12:08:07.617Z,11.00
2019-03-30T12:10:39.507Z,8.83
2019-03-30T12:13:11.066Z,10.43
2019-03-30T12:15:42.617Z,9.63
2019-03-30T12:18:14.173Z,9.63
2019-03-30T12:20:45.975Z,7.78
2019-03-30T12:23:17.673Z,7.90
2019-03-30T12:25:49.227Z,8.90
2019-03-30T12:28:20.833Z,9.38
2019-03-30T12:30:52.434Z,9.30
2019-03-30T12:33:23.968Z,9.00
2019-03-30T12:35:55.577Z,8.58
2019-03-30T12:38:27.177Z,8.30
2019-03-30T12:40:58.788Z,7.10
2019-03-30T12:43:30.668Z,8.05
2019-03-30T12:46:02.221Z,8.33
2019-03-30T12:48:33.798Z,8.55
2019-03-30T12:51:05.411Z,6.47
2019-03-30T12:53:49.429Z,6.87
2019-03-30T12:56:10.711Z,7.15
2019-03-30T12:58:42.267Z,7.72
2019-03-30T13:01:15.696Z,8.20
2019-03-30T13:03:47.738Z,7.60
2019-03-30T13:06:19.956Z,8.30
2019-03-30T13:08:51.432Z,7.45
2019-03-30T13:11:23.223Z,8.55
2019-03-30T13:13:55.704Z,8.33
2019-03-30T13:16:27.606Z,8.05
2019-03-30T13:19:00.063Z,7.42
2019-03-30T13:21:32.434Z,7.85
2019-03-30T13:24:04.172Z,8.05
2019-03-30T13:26:35.699Z,8.33
2019-03-30T13:29:07.209Z,7.83
2019-03-30T13:31:39.063Z,8.05
2019-03-30T13:34:10.606Z,8.65
2019-03-30T13:36:43.307Z,8.03
2019-03-30T13:39:14.955Z,8.63
2019-03-30T13:41:46.881Z,9.08
2019-03-30T13:44:18.826Z,9.28
2019-03-30T13:46:50.394Z,10.18
2019-03-30T13:49:21.906Z,9.10
2019-03-30T13:51:53.840Z,8.95
2019-03-30T13:54:25.389Z,9.58
2019-03-30T13:56:57.230Z,8.73
2019-03-30T13:59:29.077Z,9.65
2019-03-30T14:02:01.006Z,9.13
2019-03-30T14:04:32.518Z,9.00
2019-03-30T14:07:04.452Z,8.78
2019-03-30T14:09:36.070Z,9.63
2019-03-30T14:12:07.666Z,8.58
2019-03-30T14:14:39.261Z,9.75
2019-03-30T14:17:10.989Z,9.58
2019-03-30T14:19:42.586Z,10.25
2019-03-30T14:22:14.555Z,10.23
2019-03-30T14:24:46.288Z,10.10
2019-03-30T14:27:18.232Z,9.33
2019-03-30T14:29:49.752Z,9.53
2019-03-30T14:32:22.357Z,9.40
2019-03-30T14:34:53.867Z,8.28
2019-03-30T14:37:25.724Z,9.30
2019-03-30T14:39:57.290Z,9.68
2019-03-30T14:42:28.772Z,9.40
2019-03-30T14:45:00.362Z,9.48
2019-03-30T14:47:31.960Z,9.00
2019-03-30T14:50:03.830Z,8.83
2019-03-30T14:52:35.424Z,8.35
2019-03-30T14:55:07.512Z,8.58
2019-03-30T14:57:39.048Z,8.15
2019-03-30T15:00:11.520Z,8.55
2019-03-30T15:02:43.291Z,8.08
2019-03-30T15:05:15.058Z,7.62
2019-03-30T15:07:46.603Z,6.85
2019-03-30T15:10:18.140Z,7.83
2019-03-30T15:12:49.764Z,7.42
2019-03-30T15:15:21.360Z,7.72
2019-03-30T15:17:53.249Z,6.30
2019-03-30T15:20:25.419Z,7.08
2019-03-30T15:22:57.016Z,6.72
2019-03-30T15:25:28.497Z,6.92
2019-03-30T15:28:00.022Z,7.37
2019-03-30T15:30:31.586Z,6.60
2019-03-30T15:33:03.517Z,7.37
2019-03-30T15:35:35.313Z,7.17
2019-03-30T15:38:06.932Z,8.03
2019-03-30T15:40:38.949Z,7.75
2019-03-30T15:43:10.823Z,6.72
2019-03-30T15:45:42.520Z,7.20
2019-03-30T15:48:13.997Z,6.37
2019-03-30T15:50:45.559Z,6.10
2019-03-30T15:53:17.147Z,6.47
2019-03-30T15:55:49.142Z,6.10
2019-03-30T15:58:20.763Z,7.05
2019-03-30T16:00:52.317Z,7.28
2019-03-30T16:03:23.850Z,6.50
2019-03-30T16:05:55.409Z,6.42
2019-03-30T16:08:26.888Z,7.03
2019-03-30T16:10:58.715Z,6.95
2019-03-30T16:13:30.572Z,6.17
2019-03-30T16:16:02.027Z,6.95
2019-03-30T16:18:33.654Z,7.45
2019-03-30T16:21:05.536Z,8.43
2019-03-30T16:23:37.056Z,9.05
2019-03-30T16:26:08.995Z,7.97
2019-03-30T16:28:40.616Z,8.20
2019-03-30T16:31:12.200Z,9.10
2019-03-30T16:33:46.745Z,8.90
2019-03-30T16:36:17.344Z,8.30
2019-03-30T16:38:49.016Z,8.83
2019-03-30T16:41:20.522Z,9.33
2019-03-30T16:43:52.043Z,9.95
2019-03-30T16:46:23.721Z,8.68
2019-03-30T16:48:55.308Z,8.03
2019-03-30T16:51:27.212Z,9.05
2019-03-30T16:53:58.712Z,10.20
2019-03-30T16:56:30.230Z,10.03
2019-03-30T16:59:02.104Z,9.60
2019-03-30T17:01:33.668Z,9.40
2019-03-30T17:04:05.302Z,9.23
2019-03-30T17:06:37.159Z,8.10
2019-03-30T17:09:08.746Z,10.28
2019-03-30T17:11:40.338Z,9.75
2019-03-30T17:14:11.820Z,10.50
2019-03-30T17:16:43.359Z,10.63
2019-03-30T17:19:14.928Z,10.70
2019-03-30T17:21:46.596Z,9.90
2019-03-30T17:24:18.143Z,11.20
2019-03-30T17:26:49.607Z,11.08
2019-03-30T17:29:22.256Z,10.18
2019-03-30T17:31:53.885Z,12.88
2019-03-30T17:34:25.435Z,10.23
2019-03-30T17:36:57.089Z,10.28
2019-03-30T17:39:28.571Z,10.03
2019-03-30T17:42:00.151Z,9.30
2019-03-30T17:44:31.731Z,9.75
2019-03-30T17:47:03.266Z,8.78
2019-03-30T17:49:34.853Z,9.68
2019-03-30T17:52:06.437Z,9.43
2019-03-30T17:54:39.841Z,9.65
2019-03-30T17:57:11.273Z,9.15
2019-03-30T17:59:42.799Z,9.47
2019-03-30T18:02:14.443Z,10.33
2019-03-30T18:04:45.969Z,9.78
2019-03-30T18:07:17.962Z,9.83
2019-03-30T18:09:49.488Z,10.07
2019-03-30T18:12:21.213Z,10.23
2019-03-30T18:14:53.090Z,10.60
2019-03-30T18:17:25.037Z,9.93
2019-03-30T18:19:56.649Z,9.77
2019-03-30T18:22:28.182Z,10.23
2019-03-30T18:24:59.715Z,11.13
2019-03-30T18:27:31.533Z,10.90
2019-03-30T18:30:03.580Z,10.03
2019-03-30T18:32:35.283Z,10.57
2019-03-30T18:35:07.014Z,10.53
2019-03-30T18:37:39.665Z,11.07
2019-03-30T18:40:14.148Z,12.43
2019-03-30T18:42:46.322Z,11.77
2019-03-30T18:45:27.152Z,11.93
2019-03-30T18:48:16.586Z,13.50
2019-03-30T18:50:48.549Z,13.33
2019-03-30T18:53:20.212Z,12.43
2019-03-30T18:55:51.810Z,12.70
2019-03-30T18:58:23.541Z,13.57
2019-03-30T19:00:55.130Z,12.93
2019-03-30T19:03:26.757Z,12.37
2019-03-30T19:05:58.346Z,12.63
2019-03-30T19:08:30.566Z,13.63
2019-03-30T19:11:02.090Z,13.83
2019-03-30T19:13:33.639Z,14.43
2019-03-30T19:16:05.199Z,13.30
2019-03-30T19:18:37.224Z,14.30
2019-03-30T19:21:08.793Z,16.10
2019-03-30T19:23:40.313Z,16.03
2019-03-30T19:26:12.248Z,15.43
2019-03-30T19:28:55.631Z,15.77
2019-03-30T19:31:17.019Z,14.60
2019-03-30T19:33:48.617Z,15.93
2019-03-30T19:36:20.197Z,15.87
2019-03-30T19:38:51.863Z,17.60
2019-03-30T19:41:23.491Z,16.70
2019-03-30T19:43:55.462Z,16.97
2019-03-30T19:46:26.989Z,15.57
2019-03-30T19:48:58.603Z,16.60
2019-03-30T19:51:30.152Z,17.07
2019-03-30T19:54:01.827Z,18.57
2019-03-30T19:56:33.423Z,15.50
2019-03-30T19:59:11.159Z,16.60
2019-03-30T20:01:38.777Z,16.43
2019-03-30T20:04:10.977Z,17.67
2019-03-30T20:06:42.535Z,17.33
2019-03-30T20:09:14.486Z,17.90
2019-03-30T20:11:46.337Z,17.73
2019-03-30T20:14:18.607Z,17.30
2019-03-30T20:16:50.494Z,17.07
2019-03-30T20:19:22.096Z,16.50
2019-03-30T20:21:57.081Z,14.70
2019-03-30T20:24:27.000Z,15.63
2019-03-30T20:26:58.943Z,16.20
2019-03-30T20:29:30.902Z,15.30
2019-03-30T20:32:02.704Z,14.97
2019-03-30T20:34:34.633Z,15.23
2019-03-30T20:37:06.647Z,14.93
2019-03-30T20:39:38.216Z,14.87
2019-03-30T20:42:10.094Z,15.60
2019-03-30T20:44:41.925Z,15.53
2019-03-30T20:47:13.502Z,16.17
2019-03-30T20:49:45.117Z,16.33
2019-03-30T20:52:17.146Z,23.03
2019-03-30T20:54:48.718Z,21.50
2019-03-30T20:57:20.274Z,21.87
2019-03-30T20:59:51.804Z,20.60
2019-03-30T21:02:23.972Z,20.93
2019-03-30T21:04:55.660Z,22.20
2019-03-30T21:07:27.303Z,18.17
2019-03-30T21:09:59.505Z,19.90
2019-03-30T21:12:31.038Z,19.50
2019-03-30T21:15:03.630Z,21.30
2019-03-30T21:17:35.257Z,20.20
2019-03-30T21:20:07.832Z,20.87
2019-03-30T21:22:39.404Z,19.60
2019-03-30T21:25:11.095Z,20.00
2019-03-30T21:27:43.813Z,19.23
2019-03-30T21:30:16.114Z,19.10
2019-03-30T21:32:48.076Z,20.20
2019-03-30T21:35:20.075Z,19.63
2019-03-30T21:37:51.650Z,19.60
2019-03-30T21:40:23.141Z,19.60
2019-03-30T21:42:55.150Z,20.30
2019-03-30T21:45:26.694Z,20.00
2019-03-30T21:47:58.658Z,21.10
2019-03-30T21:50:30.190Z,20.17
2019-03-30T21:53:01.829Z,20.03
2019-03-30T21:55:33.684Z,18.80
2019-03-30T21:58:05.659Z,19.60
2019-03-30T22:00:38.798Z,19.93
2019-03-30T22:03:10.392Z,19.00
2019-03-30T22:05:41.948Z,19.10
2019-03-30T22:08:17.018Z,19.03
2019-03-30T22:10:47.814Z,20.70
2019-03-30T22:13:21.491Z,21.73
2019-03-30T22:15:53.086Z,20.83
2019-03-30T22:18:24.725Z,20.40
2019-03-30T22:20:56.261Z,20.87
2019-03-30T22:23:28.118Z,20.43
2019-03-30T22:25:59.981Z,20.93
2019-03-30T22:28:31.582Z,21.30
2019-03-30T22:31:03.163Z,21.67
2019-03-30T22:33:34.679Z,21.60
2019-03-30T22:36:06.237Z,19.80
2019-03-30T22:38:37.871Z,21.03
2019-03-30T22:41:09.401Z,21.47
2019-03-30T22:43:41.261Z,20.53
2019-03-30T22:46:12.806Z,20.30
2019-03-30T22:48:44.377Z,21.97
2019-03-30T22:51:15.909Z,21.87
2019-03-30T22:53:47.429Z,22.20
2019-03-30T22:56:18.953Z,22.27
2019-03-30T22:58:50.541Z,23.47
2019-03-30T23:01:22.738Z,22.17
2019-03-30T23:03:55.459Z,22.37
2019-03-30T23:06:27.483Z,22.03
2019-03-30T23:08:58.989Z,21.60
2019-03-30T23:11:30.479Z,21.97
2019-03-30T23:14:02.026Z,22.60
2019-03-30T23:16:33.580Z,22.00
2019-03-30T23:19:05.198Z,22.00
2019-03-30T23:21:36.663Z,23.47
2019-03-30T23:24:08.210Z,22.77
2019-03-30T23:26:40.123Z,22.50
2019-03-30T23:29:12.104Z,23.57
2019-03-30T23:31:43.774Z,24.27
2019-03-30T23:34:15.250Z,22.90
2019-03-30T23:36:46.782Z,23.23
2019-03-30T23:39:18.478Z,25.37
2019-03-30T23:41:50.062Z,23.93
2019-03-30T23:44:21.598Z,22.70
2019-03-30T23:46:53.236Z,23.00
2019-03-30T23:49:24.756Z,25.93
2019-03-30T23:51:56.340Z,24.70
2019-03-30T23:54:28.300Z,24.33
2019-03-30T23:56:59.856Z,24.13
2019-03-30T23:59:31.362Z,23.90
